createdAt,value
2023-03-12T00:01:14.439Z,99389.66
2023-03-12T00:03:40.959Z,99395.78
2023-03-12T00:06:10.886Z,99392.66
2023-03-12T00:08:37.879Z,99391.69
2023-03-12T00:11:12.273Z,99391.31
2023-03-12T00:13:39.549Z,99393.31
2023-03-12T00:16:15.135Z,99394.91
2023-03-12T00:18:42.410Z,99397.78
2023-03-12T00:21:09.573Z,99393.75
2023-03-12T00:23:36.510Z,99391.28
2023-03-12T00:26:08.821Z,99388.50
2023-03-12T00:28:36.007Z,99391.38
2023-03-12T00:31:03.945Z,99380.16
2023-03-12T00:33:30.733Z,99392.97
2023-03-12T00:36:00.282Z,99392.03
2023-03-12T00:38:26.813Z,99387.81
2023-03-12T00:40:53.302Z,99392.88
2023-03-12T00:43:19.788Z,99384.41
2023-03-12T00:45:46.310Z,99391.88
2023-03-12T00:48:12.801Z,99411.84
2023-03-12T00:50:39.295Z,99402.66
2023-03-12T00:53:05.837Z,99400.69
2023-03-12T00:55:33.522Z,99406.59
2023-03-12T00:58:00.043Z,99408.53
2023-03-12T01:00:26.603Z,99435.56
2023-03-12T01:02:53.184Z,99424.06
2023-03-12T01:05:19.778Z,99411.09
2023-03-12T01:07:46.290Z,99416.38
2023-03-12T01:10:15.069Z,99422.75
2023-03-12T01:12:42.094Z,99420.44
2023-03-12T01:15:09.661Z,99419.00
2023-03-12T01:17:36.240Z,99409.63
2023-03-12T01:20:02.889Z,99413.19
2023-03-12T01:22:29.431Z,99410.19
2023-03-12T01:24:55.937Z,99415.25
2023-03-12T01:27:22.428Z,99403.66
2023-03-12T01:29:49.172Z,99408.44
2023-03-12T01:32:17.099Z,99417.91
2023-03-12T01:34:44.536Z,99416.19
2023-03-12T01:37:11.256Z,99412.28
2023-03-12T01:39:37.905Z,99409.25
2023-03-12T01:42:05.085Z,99405.50
2023-03-12T01:44:48.196Z,99386.66
2023-03-12T01:47:14.670Z,99405.13
2023-03-12T01:49:41.145Z,99392.34
2023-03-12T01:52:10.985Z,99402.09
2023-03-12T01:54:55.224Z,99408.63
2023-03-12T01:57:38.390Z,99417.34
2023-03-12T02:00:09.608Z,99420.72
2023-03-12T02:02:36.657Z,99437.06
2023-03-12T02:05:24.697Z,99438.28
2023-03-12T02:07:51.158Z,99417.44
2023-03-12T02:10:17.716Z,99423.53
2023-03-12T02:12:44.301Z,99423.41
2023-03-12T02:15:11.363Z,99419.88
2023-03-12T02:17:40.372Z,99425.22
2023-03-12T02:20:16.303Z,99426.84
2023-03-12T02:22:47.117Z,99416.75
2023-03-12T02:25:34.742Z,99425.75
2023-03-12T02:28:03.579Z,99421.41
2023-03-12T02:30:31.043Z,99426.13
2023-03-12T02:33:00.072Z,99432.25
2023-03-12T02:35:26.605Z,99427.66
2023-03-12T02:37:55.489Z,99431.19
2023-03-12T02:40:34.375Z,99431.28
2023-03-12T02:43:01.431Z,99422.59
2023-03-12T02:45:29.825Z,99422.69
2023-03-12T02:47:56.376Z,99433.13
2023-03-12T02:50:23.072Z,99436.19
2023-03-12T02:52:49.540Z,99437.84
2023-03-12T02:55:16.069Z,99429.09
2023-03-12T02:57:43.797Z,99440.88
2023-03-12T03:00:12.577Z,99441.84
2023-03-12T03:02:40.034Z,99447.19
2023-03-12T03:05:07.864Z,99452.47
2023-03-12T03:07:34.394Z,99445.28
2023-03-12T03:10:04.201Z,99449.31
2023-03-12T03:12:35.222Z,99454.38
2023-03-12T03:15:02.322Z,99472.25
2023-03-12T03:17:29.005Z,99454.19
2023-03-12T03:19:55.578Z,99461.28
2023-03-12T03:22:22.831Z,99458.59
2023-03-12T03:24:49.644Z,99467.53
2023-03-12T03:27:16.174Z,99473.69
2023-03-12T03:29:42.625Z,99470.59
2023-03-12T03:32:09.126Z,99475.22
2023-03-12T03:34:35.592Z,99491.19
2023-03-12T03:37:02.553Z,99488.31
2023-03-12T03:39:29.811Z,99487.53
2023-03-12T03:41:56.379Z,99502.66
2023-03-12T03:44:23.145Z,99498.94
2023-03-12T03:46:50.006Z,99479.88
2023-03-12T03:49:16.998Z,99501.41
2023-03-12T03:51:43.658Z,99494.25
2023-03-12T03:54:10.744Z,99510.66
2023-03-12T03:56:37.207Z,99516.03
2023-03-12T03:59:04.121Z,99501.88
2023-03-12T04:01:31.438Z,99511.19
2023-03-12T04:03:58.924Z,99514.19
2023-03-12T04:06:25.811Z,99515.84
2023-03-12T04:08:52.284Z,99514.19
2023-03-12T04:11:20.598Z,99516.44
2023-03-12T04:13:47.557Z,99527.59
2023-03-12T04:16:14.628Z,99540.50
2023-03-12T04:18:41.386Z,99537.09
2023-03-12T04:21:09.880Z,99531.41
2023-03-12T04:23:37.010Z,99535.41
2023-03-12T04:26:04.293Z,99538.91
2023-03-12T04:28:30.812Z,99544.75
2023-03-12T04:31:02.510Z,99556.28
2023-03-12T04:33:30.707Z,99545.78
2023-03-12T04:35:57.286Z,99542.03
2023-03-12T04:38:24.829Z,99550.69
2023-03-12T04:41:01.923Z,99540.38
2023-03-12T04:43:29.169Z,99521.47
2023-03-12T04:45:56.061Z,99526.97
2023-03-12T04:48:22.680Z,99521.88
2023-03-12T04:50:49.599Z,99534.56
2023-03-12T04:53:16.174Z,99538.41
2023-03-12T04:55:42.677Z,99529.97
2023-03-12T04:58:10.747Z,99535.13
2023-03-12T05:00:38.745Z,99531.50
2023-03-12T05:03:05.290Z,99546.56
2023-03-12T05:05:31.993Z,99538.00
2023-03-12T05:07:59.210Z,99550.84
2023-03-12T05:10:25.813Z,99538.91
2023-03-12T05:12:52.390Z,99550.50
2023-03-12T05:15:19.831Z,99549.78
2023-03-12T05:17:46.265Z,99553.13
2023-03-12T05:20:13.012Z,99557.53
2023-03-12T05:22:39.733Z,99555.72
2023-03-12T05:25:06.663Z,99575.16
2023-03-12T05:27:33.331Z,99559.84
2023-03-12T05:29:59.795Z,99566.31
2023-03-12T05:32:26.311Z,99565.63
2023-03-12T05:34:52.897Z,99567.09
2023-03-12T05:37:19.383Z,99586.97
2023-03-12T05:39:46.705Z,99583.97
2023-03-12T05:42:14.166Z,99590.38
2023-03-12T05:44:41.406Z,99589.81
2023-03-12T05:47:08.273Z,99583.69
2023-03-12T05:49:34.864Z,99602.94
2023-03-12T05:52:01.446Z,99589.13
2023-03-12T05:54:29.099Z,99595.81
2023-03-12T05:56:56.319Z,99600.50
2023-03-12T05:59:23.001Z,99604.03
2023-03-12T06:01:49.498Z,99618.09
2023-03-12T06:04:16.225Z,99635.41
2023-03-12T06:06:42.760Z,99631.28
2023-03-12T06:09:09.631Z,99643.06
2023-03-12T06:11:36.177Z,99642.66
2023-03-12T06:14:02.750Z,99669.34
2023-03-12T06:16:29.641Z,99653.84
2023-03-12T06:18:58.923Z,99656.63
2023-03-12T06:21:28.915Z,99656.22
2023-03-12T06:23:55.564Z,99646.91
2023-03-12T06:26:22.796Z,99643.53
2023-03-12T06:28:50.561Z,99655.84
2023-03-12T06:31:17.970Z,99659.03
2023-03-12T06:33:44.554Z,99669.59
2023-03-12T06:36:11.287Z,99675.03
2023-03-12T06:38:37.865Z,99677.00
2023-03-12T06:41:10.033Z,99668.81
2023-03-12T06:43:37.983Z,99681.16
2023-03-12T06:46:06.936Z,99683.34
2023-03-12T06:48:36.625Z,99685.69
2023-03-12T06:51:04.302Z,99698.41
2023-03-12T06:53:31.346Z,99712.47
2023-03-12T06:55:58.350Z,99730.69
2023-03-12T06:58:25.174Z,99734.03
2023-03-12T07:00:52.062Z,99742.22
2023-03-12T07:03:18.793Z,99742.22
2023-03-12T07:05:46.320Z,99732.16
2023-03-12T07:08:13.284Z,99751.72
2023-03-12T07:10:40.161Z,99738.50
2023-03-12T07:13:06.824Z,99705.69
2023-03-12T07:15:33.789Z,99716.50
2023-03-12T07:18:01.386Z,99719.09
2023-03-12T07:20:27.846Z,99722.44
2023-03-12T07:22:54.317Z,99736.34
2023-03-12T07:25:21.018Z,99744.97
2023-03-12T07:27:47.502Z,99739.13
2023-03-12T07:30:14.214Z,99747.56
2023-03-12T07:32:41.484Z,99740.50
2023-03-12T07:35:08.332Z,99731.69
2023-03-12T07:37:34.775Z,99742.72
2023-03-12T07:40:01.582Z,99737.91
2023-03-12T07:42:28.384Z,99743.28
2023-03-12T07:44:54.830Z,99763.13
2023-03-12T07:47:24.465Z,99755.94
2023-03-12T07:49:51.506Z,99768.31
2023-03-12T07:52:20.109Z,99755.75
2023-03-12T07:54:46.830Z,99766.47
2023-03-12T07:57:16.252Z,99763.13
2023-03-12T07:59:42.894Z,99763.94
2023-03-12T08:02:10.687Z,99766.84
2023-03-12T08:04:37.419Z,99760.72
2023-03-12T08:07:05.335Z,99773.31
2023-03-12T08:09:33.300Z,99793.59
2023-03-12T08:11:59.835Z,99785.19
2023-03-12T08:14:29.687Z,99794.28
2023-03-12T08:16:56.164Z,99793.88
2023-03-12T08:19:23.018Z,99794.13
2023-03-12T08:21:50.020Z,99786.47
2023-03-12T08:24:16.638Z,99809.22
2023-03-12T08:26:43.119Z,99799.31
2023-03-12T08:29:09.954Z,99815.25
2023-03-12T08:31:36.511Z,99827.94
2023-03-12T08:34:03.055Z,99832.34
2023-03-12T08:36:29.945Z,99830.81
2023-03-12T08:38:57.766Z,99817.94
2023-03-12T08:41:24.240Z,99831.38
2023-03-12T08:43:50.726Z,99836.31
2023-03-12T08:46:17.308Z,99836.69
2023-03-12T08:48:43.793Z,99845.13
2023-03-12T08:51:10.334Z,99848.75
2023-03-12T08:53:37.377Z,99854.03
2023-03-12T08:56:04.560Z,99860.56
2023-03-12T08:58:31.480Z,99868.91
2023-03-12T09:00:58.518Z,99875.16
2023-03-12T09:03:25.834Z,99882.34
2023-03-12T09:06:06.292Z,99898.09
2023-03-12T09:08:34.047Z,99891.50
2023-03-12T09:11:01.773Z,99888.50
2023-03-12T09:13:44.092Z,99883.72
2023-03-12T09:16:15.158Z,99892.75
2023-03-12T09:18:41.653Z,99895.16
2023-03-12T09:21:08.188Z,99893.91
2023-03-12T09:23:36.981Z,99907.47
2023-03-12T09:26:03.793Z,99916.41
2023-03-12T09:28:31.817Z,99930.00
2023-03-12T09:31:01.812Z,99918.53
2023-03-12T09:33:28.369Z,99922.06
2023-03-12T09:35:59.173Z,99921.56
2023-03-12T09:38:26.690Z,99926.69
2023-03-12T09:40:53.760Z,99932.41
2023-03-12T09:43:30.224Z,99934.69
2023-03-12T09:45:57.170Z,99944.59
2023-03-12T09:48:35.114Z,99931.53
2023-03-12T09:51:04.101Z,99939.88
2023-03-12T09:53:34.781Z,99957.28
2023-03-12T09:56:09.245Z,99956.16
2023-03-12T09:58:38.308Z,99965.41
2023-03-12T10:01:24.449Z,99954.78
2023-03-12T10:04:12.385Z,99965.69
2023-03-12T10:06:49.218Z,99972.00
2023-03-12T10:09:30.696Z,99966.22
2023-03-12T10:12:15.640Z,99966.41
2023-03-12T10:15:02.382Z,99973.56
2023-03-12T10:18:00.587Z,99978.66
2023-03-12T10:20:45.709Z,99983.91
2023-03-12T10:23:23.425Z,99990.94
2023-03-12T10:26:16.689Z,99985.88
2023-03-12T10:28:50.142Z,99997.75
2023-03-12T10:32:03.615Z,99993.50
2023-03-12T10:34:40.258Z,100001.63
2023-03-12T10:37:15.165Z,100008.72
2023-03-12T10:39:41.717Z,99998.22
2023-03-12T10:42:26.081Z,100023.38
2023-03-12T10:44:56.654Z,100010.53
2023-03-12T10:47:40.305Z,100015.34
2023-03-12T10:50:37.050Z,100009.50
2023-03-12T10:53:29.975Z,100009.06
2023-03-12T10:56:00.710Z,100003.97
2023-03-12T10:58:38.343Z,100015.22
2023-03-12T11:01:07.320Z,100010.03
2023-03-12T11:03:34.144Z,100024.56
2023-03-12T11:06:02.498Z,100021.56
2023-03-12T11:08:31.690Z,100031.88
2023-03-12T11:10:59.728Z,100024.84
2023-03-12T11:13:36.961Z,100030.78
2023-03-12T11:16:18.754Z,100032.41
2023-03-12T11:19:03.933Z,100041.06
2023-03-12T11:21:33.484Z,100044.75
2023-03-12T11:23:59.914Z,100032.59
2023-03-12T11:26:32.053Z,100033.16
2023-03-12T11:29:06.357Z,100034.69
2023-03-12T11:31:42.271Z,100035.34
2023-03-12T11:34:18.353Z,100042.84
2023-03-12T11:36:56.945Z,100055.06
2023-03-12T11:39:35.680Z,100064.72
2023-03-12T11:42:15.787Z,100066.66
2023-03-12T11:45:04.330Z,100062.72
2023-03-12T11:47:48.026Z,100055.16
2023-03-12T11:50:45.472Z,100055.44
2023-03-12T11:53:24.208Z,100056.13
2023-03-12T11:56:23.716Z,100067.75
2023-03-12T11:58:56.033Z,100064.09
2023-03-12T12:01:46.447Z,100073.31
2023-03-12T12:04:47.893Z,100066.41
2023-03-12T12:07:14.309Z,100064.63
2023-03-12T12:10:01.271Z,100065.63
2023-03-12T12:12:39.942Z,100071.75
2023-03-12T12:15:26.992Z,100070.25
2023-03-12T12:18:23.526Z,100074.63
2023-03-12T12:20:56.044Z,100076.81
2023-03-12T12:23:36.155Z,100087.28
2023-03-12T12:26:05.963Z,100088.38
2023-03-12T12:28:44.457Z,100085.97
2023-03-12T12:31:30.655Z,100096.81
2023-03-12T12:34:21.282Z,100099.38
2023-03-12T12:36:56.372Z,100091.19
2023-03-12T12:39:47.135Z,100102.13
2023-03-12T12:42:21.126Z,100112.97
2023-03-12T12:44:51.153Z,100110.19
2023-03-12T12:47:30.542Z,100110.63
2023-03-12T12:49:58.287Z,100107.56
2023-03-12T12:52:26.082Z,100105.91
2023-03-12T12:54:59.321Z,100107.44
2023-03-12T12:57:39.688Z,100096.66
2023-03-12T13:00:12.354Z,100104.84
2023-03-12T13:02:41.287Z,100100.16
2023-03-12T13:05:37.246Z,100109.72
2023-03-12T13:08:10.914Z,100105.56
2023-03-12T13:10:48.334Z,100113.72
2023-03-12T13:13:25.561Z,100110.44
2023-03-12T13:16:39.546Z,100118.63
2023-03-12T13:19:15.175Z,100109.78
2023-03-12T13:21:57.520Z,100115.28
2023-03-12T13:24:30.114Z,100116.75
2023-03-12T13:27:22.529Z,100120.38
2023-03-12T13:29:56.166Z,100124.81
2023-03-12T13:32:48.702Z,100124.00
2023-03-12T13:35:18.118Z,100118.22
2023-03-12T13:37:59.717Z,100118.81
2023-03-12T13:40:29.183Z,100126.19
2023-03-12T13:43:14.058Z,100124.25
2023-03-12T13:46:07.459Z,100125.88
2023-03-12T13:48:35.649Z,100125.69
2023-03-12T13:51:17.377Z,100120.25
2023-03-12T13:53:48.185Z,100131.13
2023-03-12T13:56:17.845Z,100141.59
2023-03-12T13:58:54.721Z,100135.00
2023-03-12T14:01:23.946Z,100141.44
2023-03-12T14:03:53.749Z,100135.53
2023-03-12T14:06:23.132Z,100139.28
2023-03-12T14:09:40.580Z,100142.75
2023-03-12T14:12:39.499Z,100141.56
2023-03-12T14:15:14.026Z,100146.47
2023-03-12T14:17:43.086Z,100152.47
2023-03-12T14:20:19.460Z,100152.66
2023-03-12T14:22:50.992Z,100163.66
2023-03-12T14:25:24.070Z,100162.44
2023-03-12T14:27:50.620Z,100158.94
2023-03-12T14:30:24.214Z,100166.91
2023-03-12T14:32:55.745Z,100162.03
2023-03-12T14:35:29.474Z,100156.78
2023-03-12T14:38:03.390Z,100165.00
2023-03-12T14:40:47.217Z,100160.38
2023-03-12T14:43:27.223Z,100163.63
2023-03-12T14:45:59.677Z,100161.78
2023-03-12T14:48:31.478Z,100163.44
2023-03-12T14:50:59.388Z,100165.06
2023-03-12T14:53:28.619Z,100162.06
2023-03-12T14:56:30.850Z,100164.38
2023-03-12T14:58:59.480Z,100165.16
2023-03-12T15:01:34.068Z,100161.34
2023-03-12T15:04:03.692Z,100154.59
2023-03-12T15:06:38.570Z,100157.81
2023-03-12T15:09:06.863Z,100156.25
2023-03-12T15:11:35.320Z,100144.09
2023-03-12T15:14:09.556Z,100148.19
2023-03-12T15:16:36.174Z,100152.47
2023-03-12T15:19:04.124Z,100139.81
2023-03-12T15:21:33.867Z,100137.25
2023-03-12T15:24:00.531Z,100148.59
2023-03-12T15:26:30.204Z,100139.88
2023-03-12T15:29:01.803Z,100146.69
2023-03-12T15:31:41.176Z,100144.94
2023-03-12T15:34:08.179Z,100130.28
2023-03-12T15:36:35.174Z,100132.13
2023-03-12T15:39:15.511Z,100138.84
2023-03-12T15:41:45.365Z,100132.97
2023-03-12T15:44:23.362Z,100136.19
2023-03-12T15:46:55.708Z,100146.41
2023-03-12T15:49:27.762Z,100136.44
2023-03-12T15:52:07.004Z,100150.91
2023-03-12T15:54:35.201Z,100149.16
2023-03-12T15:57:34.360Z,100155.47
2023-03-12T16:00:13.425Z,100157.50
2023-03-12T16:03:05.994Z,100152.13
2023-03-12T16:05:38.817Z,100146.22
2023-03-12T16:08:17.992Z,100149.59
2023-03-12T16:10:44.892Z,100157.78
2023-03-12T16:13:15.206Z,100158.00
2023-03-12T16:15:42.988Z,100155.22
2023-03-12T16:18:19.270Z,100163.19
2023-03-12T16:20:46.814Z,100160.28
2023-03-12T16:23:14.290Z,100170.69
2023-03-12T16:25:50.919Z,100170.50
2023-03-12T16:28:19.503Z,100171.16
2023-03-12T16:30:46.859Z,100179.91
2023-03-12T16:33:16.232Z,100184.31
2023-03-12T16:35:43.446Z,100182.88
2023-03-12T16:38:10.489Z,100180.28
2023-03-12T16:40:46.220Z,100181.97
2023-03-12T16:43:19.089Z,100192.28
2023-03-12T16:45:47.855Z,100186.75
2023-03-12T16:48:17.744Z,100186.19
2023-03-12T16:50:53.014Z,100188.22
2023-03-12T16:53:20.162Z,100195.22
2023-03-12T16:55:58.668Z,100182.41
2023-03-12T16:58:26.282Z,100188.56
2023-03-12T17:00:57.147Z,100179.84
2023-03-12T17:03:36.038Z,100188.81
2023-03-12T17:06:06.857Z,100187.91
2023-03-12T17:08:34.339Z,100185.78
2023-03-12T17:11:01.168Z,100179.22
2023-03-12T17:13:28.834Z,100191.78
2023-03-12T17:15:56.728Z,100205.69
2023-03-12T17:18:24.082Z,100214.66
2023-03-12T17:20:51.775Z,100212.38
2023-03-12T17:23:18.930Z,100220.56
2023-03-12T17:25:46.065Z,100226.22
2023-03-12T17:28:14.625Z,100218.78
2023-03-12T17:30:44.049Z,100226.50
2023-03-12T17:33:14.858Z,100226.31
2023-03-12T17:35:42.469Z,100222.38
2023-03-12T17:38:09.514Z,100226.16
2023-03-12T17:40:41.031Z,100232.97
2023-03-12T17:43:07.563Z,100230.03
2023-03-12T17:45:37.091Z,100226.09
2023-03-12T17:48:04.989Z,100224.63
2023-03-12T17:50:31.612Z,100224.28
2023-03-12T17:52:58.715Z,100231.56
2023-03-12T17:55:25.745Z,100233.19
2023-03-12T17:57:52.828Z,100235.28
2023-03-12T18:00:21.846Z,100227.72
2023-03-12T18:02:49.201Z,100226.66
2023-03-12T18:05:16.321Z,100225.22
2023-03-12T18:07:42.999Z,100231.31
2023-03-12T18:10:13.791Z,100226.50
2023-03-12T18:12:41.012Z,100225.88
2023-03-12T18:15:09.523Z,100226.84
2023-03-12T18:17:36.732Z,100235.72
2023-03-12T18:20:10.224Z,100228.34
2023-03-12T18:22:38.885Z,100234.50
2023-03-12T18:25:07.320Z,100242.00
2023-03-12T18:27:33.863Z,100233.47
2023-03-12T18:30:00.362Z,100233.22
2023-03-12T18:32:26.867Z,100234.06
2023-03-12T18:34:55.743Z,100236.44
2023-03-12T18:37:23.003Z,100245.81
2023-03-12T18:39:49.509Z,100244.88
2023-03-12T18:42:15.992Z,100244.78
2023-03-12T18:44:43.265Z,100248.91
2023-03-12T18:47:09.785Z,100246.84
2023-03-12T18:49:36.715Z,100241.84
2023-03-12T18:52:03.414Z,100258.22
2023-03-12T18:54:30.041Z,100247.19
2023-03-12T18:56:56.588Z,100260.25
2023-03-12T18:59:23.376Z,100260.84
2023-03-12T19:01:49.945Z,100265.06
2023-03-12T19:04:18.730Z,100258.19
2023-03-12T19:06:51.137Z,100256.97
2023-03-12T19:09:18.550Z,100251.63
2023-03-12T19:11:47.886Z,100240.78
2023-03-12T19:14:14.616Z,100242.09
2023-03-12T19:16:41.345Z,100243.88
2023-03-12T19:19:09.158Z,100248.69
2023-03-12T19:21:35.725Z,100238.28
2023-03-12T19:24:02.183Z,100235.22
2023-03-12T19:26:28.824Z,100236.59
2023-03-12T19:28:55.440Z,100239.50
2023-03-12T19:31:22.052Z,100224.91
2023-03-12T19:33:48.629Z,100221.88
2023-03-12T19:36:17.179Z,100222.78
2023-03-12T19:38:44.986Z,100221.78
2023-03-12T19:41:12.091Z,100209.75
2023-03-12T19:43:40.222Z,100205.84
2023-03-12T19:46:06.959Z,100212.22
2023-03-12T19:48:33.821Z,100207.28
2023-03-12T19:51:08.728Z,100219.19
2023-03-12T19:53:35.530Z,100211.66
2023-03-12T19:56:02.120Z,100209.03
2023-03-12T19:58:28.980Z,100204.75
2023-03-12T20:00:59.084Z,100204.75
2023-03-12T20:03:26.127Z,100208.53
2023-03-12T20:05:52.716Z,100200.97
2023-03-12T20:08:20.964Z,100208.31
2023-03-12T20:10:48.825Z,100204.66
2023-03-12T20:13:17.738Z,100204.75
2023-03-12T20:15:47.194Z,100200.00
2023-03-12T20:18:22.416Z,100204.38
2023-03-12T20:20:50.440Z,100200.25
2023-03-12T20:23:17.061Z,100198.97
2023-03-12T20:25:47.593Z,100203.53
2023-03-12T20:28:14.261Z,100197.69
2023-03-12T20:30:41.362Z,100205.38
2023-03-12T20:33:08.607Z,100202.69
2023-03-12T20:35:36.070Z,100201.81
2023-03-12T20:38:02.705Z,100204.88
2023-03-12T20:40:29.550Z,100201.59
2023-03-12T20:42:56.707Z,100184.22
2023-03-12T20:45:23.321Z,100183.44
2023-03-12T20:47:50.145Z,100178.13
2023-03-12T20:50:17.154Z,100179.72
2023-03-12T20:52:45.114Z,100175.75
2023-03-12T20:55:11.751Z,100167.41
2023-03-12T20:57:38.416Z,100152.78
2023-03-12T21:00:05.808Z,100161.84
2023-03-12T21:02:32.446Z,100160.66
2023-03-12T21:04:59.757Z,100163.50
2023-03-12T21:07:26.548Z,100169.19
2023-03-12T21:09:53.471Z,100158.22
2023-03-12T21:12:20.268Z,100157.69
2023-03-12T21:14:47.000Z,100154.72
2023-03-12T21:17:16.065Z,100152.91
2023-03-12T21:19:43.071Z,100149.56
2023-03-12T21:22:10.021Z,100149.69
2023-03-12T21:24:36.544Z,100136.59
2023-03-12T21:27:03.160Z,100141.94
2023-03-12T21:29:29.697Z,100136.84
2023-03-12T21:31:56.420Z,100134.19
2023-03-12T21:34:23.479Z,100123.44
2023-03-12T21:36:49.961Z,100136.81
2023-03-12T21:39:17.221Z,100136.03
2023-03-12T21:41:43.768Z,100124.97
2023-03-12T21:44:10.267Z,100125.13
2023-03-12T21:46:36.860Z,100127.97
2023-03-12T21:49:03.554Z,100133.16
2023-03-12T21:51:30.131Z,100126.88
2023-03-12T21:53:57.565Z,100134.66
2023-03-12T21:56:28.061Z,100138.50
2023-03-12T21:58:56.421Z,100134.81
2023-03-12T22:01:23.092Z,100145.94
2023-03-12T22:03:49.824Z,100141.56
2023-03-12T22:06:16.772Z,100141.72
2023-03-12T22:08:43.993Z,100132.34
2023-03-12T22:11:10.856Z,100124.94
2023-03-12T22:13:37.873Z,100125.81
2023-03-12T22:16:07.607Z,100124.44
2023-03-12T22:18:45.248Z,100115.28
2023-03-12T22:21:22.473Z,100115.13
2023-03-12T22:23:53.021Z,100121.59
2023-03-12T22:26:24.070Z,100106.50
2023-03-12T22:28:52.372Z,100103.97
2023-03-12T22:31:20.536Z,100110.97
2023-03-12T22:33:47.264Z,100110.94
2023-03-12T22:36:15.328Z,100101.63
2023-03-12T22:38:42.266Z,100107.13
2023-03-12T22:41:17.669Z,100093.00
2023-03-12T22:43:44.776Z,100105.06
2023-03-12T22:46:11.848Z,100104.28
2023-03-12T22:48:38.539Z,100096.59
2023-03-12T22:51:05.759Z,100110.22
2023-03-12T22:53:32.757Z,100107.69
2023-03-12T22:56:00.791Z,100101.88
2023-03-12T22:58:27.821Z,100098.28
2023-03-12T23:01:08.620Z,100087.31
2023-03-12T23:03:36.624Z,100085.22
2023-03-12T23:06:03.819Z,100089.34
2023-03-12T23:08:30.730Z,100089.00
2023-03-12T23:11:00.004Z,100087.38
2023-03-12T23:13:27.958Z,100071.16
2023-03-12T23:15:54.500Z,100072.56
2023-03-12T23:18:21.378Z,100078.34
2023-03-12T23:20:47.904Z,100074.56
2023-03-12T23:23:16.922Z,100070.41
2023-03-12T23:25:52.409Z,100061.94
2023-03-12T23:28:18.857Z,100059.97
2023-03-12T23:30:55.448Z,100055.19
2023-03-12T23:33:21.948Z,100062.81
2023-03-12T23:35:55.285Z,100074.22
2023-03-12T23:38:21.971Z,100070.59
2023-03-12T23:40:48.677Z,100076.34
2023-03-12T23:43:15.156Z,100076.56
2023-03-12T23:45:41.706Z,100077.53
2023-03-12T23:48:08.364Z,100068.59
2023-03-12T23:50:35.200Z,100061.13
2023-03-12T23:53:01.965Z,100065.28
2023-03-12T23:55:29.258Z,100063.44
2023-03-12T23:57:55.720Z,100044.03
